Time;durP1;ratioP1;P1;durP2;ratioP2;P2;SDS_P1;SDS_P2;PMS_P1;PMS_P2;Temp;Humidity;BMP_temperature;BMP_pressure;BME280_temperature;BME280_humidity;BME280_pressure;Samples;Min_cycle;Max_cycle;Signal;HPM_P1;HPM_P2
2022/01/17 00:01:46;;;;;;;;;;;5.80;99.90;;;;;;5070223;27;19938;-81
2022/01/17 00:04:12;;;;;;;;;;;5.80;99.90;;;;;;5112128;27;19923;-80
2022/01/17 00:06:39;;;;;;;;;;;5.80;99.90;;;;;;5082131;27;20265;-86
2022/01/17 00:09:05;;;;;;;;;;;5.80;99.90;;;;;;5084075;27;19942;-83
2022/01/17 00:11:30;;;;;;;;;;;5.80;99.90;;;;;;5097519;28;20371;-82
2022/01/17 00:13:57;;;;;;;;;;;5.80;99.90;;;;;;5108897;27;19923;-81
2022/01/17 00:16:32;;;;;;;;;;;5.80;99.90;;;;;;5079448;28;19915;-82
2022/01/17 00:19:31;;;;;;;;;;;5.80;99.90;;;;;;5109479;27;19968;-81
2022/01/17 00:21:53;;;;;;;;;;;5.90;99.90;;;;;;5116866;27;19938;-82
2022/01/17 00:24:20;;;;;;;;;;;5.90;99.90;;;;;;5113016;27;20364;-82
2022/01/17 00:26:47;;;;;;;;;;;5.80;99.90;;;;;;5097514;27;19994;-84
2022/01/17 00:29:12;;;;;;;;;;;5.80;99.90;;;;;;5114693;27;19919;-80
2022/01/17 00:31:38;;;;;;;;;;;5.90;99.90;;;;;;5097250;27;20418;-80
2022/01/17 00:34:04;;;;;;;;;;;5.80;99.90;;;;;;5113489;27;19997;-82
2022/01/17 00:36:29;;;;;;;;;;;5.80;99.90;;;;;;5099337;27;19929;-82
2022/01/17 00:38:55;;;;;;;;;;;6.00;99.90;;;;;;5113879;27;20022;-81
2022/01/17 00:41:20;;;;;;;;;;;5.80;99.90;;;;;;5096305;27;19916;-81
2022/01/17 00:43:46;;;;;;;;;;;5.80;99.90;;;;;;5116457;27;19919;-81
2022/01/17 00:46:12;;;;;;;;;;;5.70;99.90;;;;;;5098764;27;19998;-81
2022/01/17 00:48:37;;;;;;;;;;;5.70;99.90;;;;;;5093329;27;19920;-82
2022/01/17 00:51:03;;;;;;;;;;;5.60;99.90;;;;;;5098664;27;19923;-81
2022/01/17 00:53:30;;;;;;;;;;;5.60;99.90;;;;;;5098386;27;20381;-80
2022/01/17 00:55:55;;;;;;;;;;;5.50;99.90;;;;;;5095092;27;19989;-81
2022/01/17 00:58:21;;;;;;;;;;;5.50;99.90;;;;;;5091219;27;19955;-82
2022/01/17 01:00:47;;;;;;;;;;;5.50;99.90;;;;;;5096966;27;20002;-81
2022/01/17 01:03:12;;;;;;;;;;;5.40;99.90;;;;;;5110872;27;19915;-80
2022/01/17 01:05:38;;;;;;;;;;;5.30;99.90;;;;;;5112503;27;19915;-83
2022/01/17 01:08:04;;;;;;;;;;;5.40;99.90;;;;;;5080974;27;19962;-81
2022/01/17 01:10:30;;;;;;;;;;;5.30;99.90;;;;;;5095519;27;19926;-80
2022/01/17 01:12:55;;;;;;;;;;;5.30;99.90;;;;;;5109769;27;19954;-81
2022/01/17 01:15:33;;;;;;;;;;;5.20;99.90;;;;;;5115917;27;20552;-82
2022/01/17 01:18:01;;;;;;;;;;;5.40;99.90;;;;;;5093083;27;19980;-80
2022/01/17 01:28:31;;;;;;;;;;;5.40;99.90;;;;;;5094821;28;19951;-82
2022/01/17 01:30:59;;;;;;;;;;;5.40;99.90;;;;;;5097024;27;20388;-83
2022/01/17 01:33:32;;;;;;;;;;;5.50;99.90;;;;;;5093594;28;20376;-80
2022/01/17 01:36:06;;;;;;;;;;;5.50;99.90;;;;;;5095646;27;19915;-79
2022/01/17 01:38:32;;;;;;;;;;;5.50;99.90;;;;;;5110839;27;19916;-82
2022/01/17 01:40:58;;;;;;;;;;;5.40;99.90;;;;;;5096329;27;20353;-80
2022/01/17 01:43:24;;;;;;;;;;;5.40;99.90;;;;;;5092554;27;19923;-80
2022/01/17 01:45:50;;;;;;;;;;;5.40;99.90;;;;;;5115441;27;20333;-80
2022/01/17 01:48:19;;;;;;;;;;;5.40;99.90;;;;;;5099841;27;20033;-82
2022/01/17 01:50:45;;;;;;;;;;;5.40;99.90;;;;;;5113667;27;19919;-80
2022/01/17 01:53:10;;;;;;;;;;;5.30;99.90;;;;;;5097367;27;19923;-81
2022/01/17 01:55:36;;;;;;;;;;;5.30;99.90;;;;;;5093128;27;20309;-80
2022/01/17 01:58:02;;;;;;;;;;;5.30;99.90;;;;;;5076303;28;19985;-81
2022/01/17 02:00:27;;;;;;;;;;;5.20;99.90;;;;;;5093079;27;20278;-82
2022/01/17 02:02:53;;;;;;;;;;;5.30;99.90;;;;;;5096791;27;19940;-81
2022/01/17 02:05:19;;;;;;;;;;;5.20;99.90;;;;;;5108594;28;19923;-81
2022/01/17 02:07:45;;;;;;;;;;;5.20;99.90;;;;;;5102401;27;20340;-81
2022/01/17 02:10:11;;;;;;;;;;;5.20;99.90;;;;;;5093019;28;19916;-81
2022/01/17 02:12:37;;;;;;;;;;;5.20;99.90;;;;;;5109314;27;19962;-81
2022/01/17 02:15:03;;;;;;;;;;;5.20;99.90;;;;;;5097534;27;19959;-82
2022/01/17 02:17:32;;;;;;;;;;;5.10;99.90;;;;;;5103572;28;20460;-81
2022/01/17 02:20:06;;;;;;;;;;;5.10;99.90;;;;;;5080510;27;19919;-83
2022/01/17 02:22:32;;;;;;;;;;;5.10;99.90;;;;;;5098137;27;19916;-82
2022/01/17 02:24:58;;;;;;;;;;;4.90;99.90;;;;;;5112814;28;20326;-82
2022/01/17 02:27:23;;;;;;;;;;;5.10;99.90;;;;;;5095828;28;19942;-83
2022/01/17 02:29:49;;;;;;;;;;;4.90;99.90;;;;;;5097290;28;19994;-81
2022/01/17 02:32:14;;;;;;;;;;;4.90;99.90;;;;;;5095037;28;19915;-81
2022/01/17 02:34:41;;;;;;;;;;;4.80;99.90;;;;;;5095129;28;19983;-83
2022/01/17 02:37:07;;;;;;;;;;;4.90;99.90;;;;;;5091299;28;19919;-80
2022/01/17 02:39:33;;;;;;;;;;;5.10;99.90;;;;;;5089187;28;20025;-81
2022/01/17 02:42:00;;;;;;;;;;;5.00;99.90;;;;;;5107113;28;19915;-80
2022/01/17 02:44:26;;;;;;;;;;;5.10;99.90;;;;;;5094200;28;19923;-83
2022/01/17 02:46:51;;;;;;;;;;;5.20;99.90;;;;;;5094271;28;19916;-82
2022/01/17 02:49:17;;;;;;;;;;;5.30;99.90;;;;;;5087769;28;20387;-83
2022/01/17 02:51:47;;;;;;;;;;;5.20;99.90;;;;;;5111082;28;19922;-81
2022/01/17 02:54:13;;;;;;;;;;;5.20;99.90;;;;;;5105917;28;19927;-81
2022/01/17 02:56:38;;;;;;;;;;;5.20;99.90;;;;;;5080066;28;19915;-83
2022/01/17 02:59:04;;;;;;;;;;;5.30;99.90;;;;;;5095748;28;20382;-81
2022/01/17 03:01:29;;;;;;;;;;;5.50;99.90;;;;;;5089769;28;20471;-80
2022/01/17 03:03:57;;;;;;;;;;;5.30;99.90;;;;;;5111029;28;19924;-83
2022/01/17 03:06:23;;;;;;;;;;;5.30;99.90;;;;;;5090065;28;19919;-81
2022/01/17 03:08:50;;;;;;;;;;;5.40;99.90;;;;;;5106626;28;19915;-82
2022/01/17 03:11:17;;;;;;;;;;;5.40;99.90;;;;;;5104117;28;19919;-79
2022/01/17 03:13:44;;;;;;;;;;;5.40;99.90;;;;;;5089719;28;19926;-83
2022/01/17 03:16:12;;;;;;;;;;;5.50;99.90;;;;;;5090267;28;20371;-81
2022/01/17 03:18:39;;;;;;;;;;;5.60;99.90;;;;;;5090601;28;20416;-80
2022/01/17 03:21:06;;;;;;;;;;;5.50;99.90;;;;;;5093860;28;20325;-80
2022/01/17 03:23:32;;;;;;;;;;;5.50;99.90;;;;;;5112900;28;19964;-81
2022/01/17 03:25:58;;;;;;;;;;;5.50;99.90;;;;;;5109299;28;19917;-82
2022/01/17 03:28:25;;;;;;;;;;;5.60;99.90;;;;;;5117272;27;19915;-81
2022/01/17 03:30:51;;;;;;;;;;;5.60;99.90;;;;;;5108934;27;19923;-80
2022/01/17 03:33:17;;;;;;;;;;;5.60;99.90;;;;;;5098186;27;19924;-81
2022/01/17 03:35:44;;;;;;;;;;;5.60;99.90;;;;;;5111352;27;19915;-81
2022/01/17 03:38:11;;;;;;;;;;;5.60;99.90;;;;;;5096548;28;20637;-85
2022/01/17 03:40:40;;;;;;;;;;;5.90;99.90;;;;;;5124952;27;19995;-80
2022/01/17 03:43:06;;;;;;;;;;;5.80;99.90;;;;;;5087008;28;19968;-81
2022/01/17 03:45:32;;;;;;;;;;;5.70;99.90;;;;;;5094846;27;19916;-80
2022/01/17 03:47:57;;;;;;;;;;;6.00;99.90;;;;;;5087031;27;19915;-81
2022/01/17 03:50:24;;;;;;;;;;;5.70;99.90;;;;;;5092320;28;20285;-81
2022/01/17 03:52:50;;;;;;;;;;;5.80;99.90;;;;;;5084926;27;19986;-82
2022/01/17 03:55:17;;;;;;;;;;;5.70;99.90;;;;;;5095626;27;19923;-81
2022/01/17 03:57:44;;;;;;;;;;;5.80;99.90;;;;;;5117214;27;19915;-81
2022/01/17 04:00:11;;;;;;;;;;;5.70;99.90;;;;;;5096804;27;19983;-85
2022/01/17 04:02:37;;;;;;;;;;;5.70;99.90;;;;;;5113779;27;19927;-81
2022/01/17 04:05:03;;;;;;;;;;;5.80;99.90;;;;;;5108610;27;19919;-83
2022/01/17 04:07:28;;;;;;;;;;;5.80;99.90;;;;;;5100130;27;19928;-81
2022/01/17 04:09:54;;;;;;;;;;;5.70;99.90;;;;;;5099619;27;19964;-81
2022/01/17 04:12:20;;;;;;;;;;;5.80;99.90;;;;;;5096047;27;20268;-81
2022/01/17 04:14:45;;;;;;;;;;;5.80;99.90;;;;;;5111005;27;19969;-82
2022/01/17 04:17:11;;;;;;;;;;;5.90;99.90;;;;;;5107017;28;19926;-80
2022/01/17 04:19:36;;;;;;;;;;;5.80;99.90;;;;;;5112585;28;19989;-82
2022/01/17 04:22:04;;;;;;;;;;;5.70;99.90;;;;;;5114170;28;20357;-81
2022/01/17 04:24:30;;;;;;;;;;;5.80;99.90;;;;;;5103226;28;19943;-80
2022/01/17 04:26:55;;;;;;;;;;;5.90;99.90;;;;;;5106363;28;19924;-80
2022/01/17 04:29:21;;;;;;;;;;;5.90;99.90;;;;;;5089927;28;19923;-79
2022/01/17 04:31:52;;;;;;;;;;;6.00;99.90;;;;;;5110481;28;19923;-81
2022/01/17 04:34:18;;;;;;;;;;;6.00;99.90;;;;;;5098160;28;20304;-81
2022/01/17 04:36:43;;;;;;;;;;;6.20;99.90;;;;;;5096996;28;20041;-80
2022/01/17 04:39:10;;;;;;;;;;;6.20;99.90;;;;;;5106259;28;19923;-81
2022/01/17 04:41:39;;;;;;;;;;;5.90;99.90;;;;;;5086513;28;19926;-81
2022/01/17 04:46:49;;;;;;;;;;;6.10;99.90;;;;;;5098837;28;19916;-82
2022/01/17 04:49:15;;;;;;;;;;;6.10;99.90;;;;;;5099624;28;19923;-81
2022/01/17 04:51:41;;;;;;;;;;;6.00;99.90;;;;;;5090708;28;19981;-83
2022/01/17 04:54:39;;;;;;;;;;;6.10;99.90;;;;;;5104540;28;19927;-81
2022/01/17 04:57:04;;;;;;;;;;;6.10;99.90;;;;;;5100648;28;20273;-82
2022/01/17 04:59:30;;;;;;;;;;;6.10;99.90;;;;;;5084937;28;19916;-81
2022/01/17 05:01:55;;;;;;;;;;;6.60;99.90;;;;;;5083151;28;19920;-80
2022/01/17 05:04:21;;;;;;;;;;;6.20;99.90;;;;;;5085637;28;19916;-80
2022/01/17 05:06:46;;;;;;;;;;;6.70;99.90;;;;;;5097322;28;19919;-82
2022/01/17 05:09:12;;;;;;;;;;;6.20;99.90;;;;;;5071855;28;19924;-81
2022/01/17 05:11:39;;;;;;;;;;;6.40;99.90;;;;;;5113715;28;19963;-81
2022/01/17 05:14:05;;;;;;;;;;;6.30;99.90;;;;;;5088487;28;19919;-82
2022/01/17 05:16:36;;;;;;;;;;;6.20;99.90;;;;;;5086174;27;20384;-81
2022/01/17 05:21:46;;;;;;;;;;;6.40;99.90;;;;;;5110710;27;19915;-82
2022/01/17 05:24:11;;;;;;;;;;;6.30;99.90;;;;;;5109912;27;19915;-83
2022/01/17 05:26:37;;;;;;;;;;;6.30;99.90;;;;;;5077215;27;19926;-80
2022/01/17 05:29:02;;;;;;;;;;;6.30;99.90;;;;;;5092967;27;19973;-81
2022/01/17 05:31:28;;;;;;;;;;;6.30;99.90;;;;;;5107651;27;19923;-83
2022/01/17 05:33:53;;;;;;;;;;;6.50;99.90;;;;;;5106987;27;20716;-83
2022/01/17 05:36:19;;;;;;;;;;;6.30;99.90;;;;;;5094610;27;19926;-79
2022/01/17 05:38:45;;;;;;;;;;;6.30;99.90;;;;;;5109395;27;19916;-82
2022/01/17 05:41:10;;;;;;;;;;;6.30;99.90;;;;;;5086536;27;19930;-82
2022/01/17 05:43:36;;;;;;;;;;;6.30;99.90;;;;;;5095396;27;19919;-78
2022/01/17 05:46:02;;;;;;;;;;;6.40;99.90;;;;;;5092330;27;19939;-80
2022/01/17 05:48:27;;;;;;;;;;;6.40;99.90;;;;;;5109089;27;19987;-80
2022/01/17 05:50:53;;;;;;;;;;;6.50;99.90;;;;;;5087253;27;20250;-80
2022/01/17 05:53:18;;;;;;;;;;;6.30;99.90;;;;;;5105926;27;19923;-81
2022/01/17 05:55:45;;;;;;;;;;;6.50;99.90;;;;;;5092926;27;20321;-83
2022/01/17 05:58:11;;;;;;;;;;;6.40;99.90;;;;;;5110664;27;19919;-82
2022/01/17 06:00:36;;;;;;;;;;;6.30;99.90;;;;;;5096068;27;19975;-80
2022/01/17 06:03:02;;;;;;;;;;;6.30;99.90;;;;;;5113692;27;20006;-82
2022/01/17 06:05:28;;;;;;;;;;;6.40;99.90;;;;;;5113797;27;19921;-81
2022/01/17 06:07:53;;;;;;;;;;;6.30;99.90;;;;;;5102506;27;20371;-81
2022/01/17 06:10:19;;;;;;;;;;;6.30;99.90;;;;;;5094225;27;19915;-81
2022/01/17 06:12:45;;;;;;;;;;;6.20;99.90;;;;;;5113410;28;20383;-83
2022/01/17 06:15:10;;;;;;;;;;;6.20;99.90;;;;;;5096855;27;20352;-83
2022/01/17 06:17:36;;;;;;;;;;;6.20;99.90;;;;;;5095113;27;19930;-83
2022/01/17 06:20:03;;;;;;;;;;;6.20;99.90;;;;;;5094094;27;20425;-81
2022/01/17 06:22:32;;;;;;;;;;;6.20;99.90;;;;;;5106748;27;19930;-84
2022/01/17 06:24:57;;;;;;;;;;;6.20;99.90;;;;;;5115475;27;19923;-80
2022/01/17 06:27:23;;;;;;;;;;;6.20;99.90;;;;;;5081479;28;19935;-81
2022/01/17 06:29:49;;;;;;;;;;;6.20;99.90;;;;;;5086551;27;20276;-82
2022/01/17 06:32:14;;;;;;;;;;;6.20;99.90;;;;;;5102458;28;19923;-82
2022/01/17 06:34:40;;;;;;;;;;;6.30;99.90;;;;;;5103792;28;19953;-82
2022/01/17 06:37:06;;;;;;;;;;;6.30;99.90;;;;;;5093964;28;19959;-81
2022/01/17 06:39:31;;;;;;;;;;;6.30;99.90;;;;;;5109870;28;19916;-83
2022/01/17 06:41:57;;;;;;;;;;;6.30;99.90;;;;;;5087963;28;20381;-81
2022/01/17 06:44:22;;;;;;;;;;;6.20;99.90;;;;;;5110528;28;19915;-81
2022/01/17 06:46:48;;;;;;;;;;;6.20;99.90;;;;;;5113043;28;20380;-82
2022/01/17 06:49:14;;;;;;;;;;;6.20;99.90;;;;;;5124936;28;19916;-80
2022/01/17 06:51:39;;;;;;;;;;;6.20;99.90;;;;;;5092576;28;19920;-82
2022/01/17 06:54:05;;;;;;;;;;;6.30;99.90;;;;;;5073147;28;19968;-81
2022/01/17 06:56:30;;;;;;;;;;;6.30;99.90;;;;;;5076735;28;19916;-82
2022/01/17 06:58:56;;;;;;;;;;;6.30;99.90;;;;;;5092292;28;19919;-83
2022/01/17 07:01:22;;;;;;;;;;;6.30;99.90;;;;;;5110738;28;19923;-83
2022/01/17 07:03:49;;;;;;;;;;;6.40;99.90;;;;;;5118045;27;19916;-82
2022/01/17 07:06:14;;;;;;;;;;;6.40;99.90;;;;;;5092604;27;19916;-83
2022/01/17 07:08:40;;;;;;;;;;;6.40;99.90;;;;;;5114476;27;20001;-82
2022/01/17 07:11:05;;;;;;;;;;;6.40;99.90;;;;;;5120696;27;19953;-81
2022/01/17 07:13:34;;;;;;;;;;;6.50;99.90;;;;;;5135282;27;19966;-82
2022/01/17 07:16:00;;;;;;;;;;;6.50;99.90;;;;;;5119222;27;19956;-83
2022/01/17 07:18:26;;;;;;;;;;;6.50;99.90;;;;;;5130468;27;20386;-84
2022/01/17 07:20:51;;;;;;;;;;;6.50;99.90;;;;;;5099605;27;19950;-81
2022/01/17 07:23:17;;;;;;;;;;;6.50;99.90;;;;;;5115874;27;20249;-84
2022/01/17 07:25:43;;;;;;;;;;;6.50;99.90;;;;;;5094428;27;19968;-81
2022/01/17 07:28:09;;;;;;;;;;;6.50;99.90;;;;;;5111766;27;19915;-82
2022/01/17 07:30:35;;;;;;;;;;;6.60;99.90;;;;;;5090867;28;20369;-82
2022/01/17 07:33:02;;;;;;;;;;;6.60;99.90;;;;;;5129297;27;20288;-81
2022/01/17 07:35:27;;;;;;;;;;;6.60;99.90;;;;;;5062772;28;19973;-79
2022/01/17 07:37:53;;;;;;;;;;;6.60;99.90;;;;;;5126673;27;19919;-79
2022/01/17 07:40:19;;;;;;;;;;;6.70;99.90;;;;;;5109674;27;20006;-81
2022/01/17 07:42:44;;;;;;;;;;;6.70;99.90;;;;;;5089547;28;19916;-80
2022/01/17 07:45:13;;;;;;;;;;;6.80;99.90;;;;;;5097192;27;19941;-81
2022/01/17 07:50:06;;;;;;;;;;;6.80;99.90;;;;;;5115495;27;19923;-84
2022/01/17 07:52:39;;;;;;;;;;;8.20;99.90;;;;;;5085116;27;20005;-85
2022/01/17 07:55:05;;;;;;;;;;;7.70;99.90;;;;;;5080360;28;19924;-83
2022/01/17 07:57:30;;;;;;;;;;;6.90;99.90;;;;;;5112583;27;19927;-84
2022/01/17 07:59:56;;;;;;;;;;;7.00;99.90;;;;;;5097032;27;19919;-79
2022/01/17 08:02:27;;;;;;;;;;;7.00;99.90;;;;;;5088706;27;19972;-80
2022/01/17 08:04:53;;;;;;;;;;;7.00;99.90;;;;;;5094070;28;20340;-81
2022/01/17 08:07:19;;;;;;;;;;;7.00;99.90;;;;;;5113552;27;19916;-83
2022/01/17 08:09:44;;;;;;;;;;;7.10;99.90;;;;;;5092552;27;19916;-82
2022/01/17 08:12:10;;;;;;;;;;;7.30;99.90;;;;;;5098811;27;19926;-84
2022/01/17 08:14:36;;;;;;;;;;;7.20;99.90;;;;;;5095468;27;19923;-83
2022/01/17 08:17:02;;;;;;;;;;;7.20;99.90;;;;;;5094986;27;19930;-83
2022/01/17 08:19:28;;;;;;;;;;;6.80;99.90;;;;;;5082404;27;20002;-81
2022/01/17 08:21:53;;;;;;;;;;;7.00;99.90;;;;;;5073746;27;19973;-79
2022/01/17 08:24:19;;;;;;;;;;;7.40;99.90;;;;;;5103176;27;19938;-77
2022/01/17 08:26:45;;;;;;;;;;;5.80;99.90;;;;;;5116442;27;19980;-79
2022/01/17 08:29:12;;;;;;;;;;;7.30;99.90;;;;;;5127607;27;19915;-82
2022/01/17 08:31:38;;;;;;;;;;;7.70;99.90;;;;;;5090553;27;19916;-82
2022/01/17 08:34:04;;;;;;;;;;;7.90;99.90;;;;;;5080889;27;19930;-80
2022/01/17 08:36:31;;;;;;;;;;;7.90;99.90;;;;;;5092033;27;20364;-80
2022/01/17 08:38:57;;;;;;;;;;;7.30;99.90;;;;;;5093159;27;19923;-78
2022/01/17 08:41:22;;;;;;;;;;;7.90;99.90;;;;;;5069634;28;19926;-81
2022/01/17 08:43:48;;;;;;;;;;;7.50;99.90;;;;;;5114568;27;19926;-82
2022/01/17 08:46:14;;;;;;;;;;;7.50;99.90;;;;;;5076916;27;19915;-77
2022/01/17 08:48:40;;;;;;;;;;;7.70;99.90;;;;;;5097390;27;20022;-83
2022/01/17 08:51:07;;;;;;;;;;;7.60;99.90;;;;;;5113199;27;20006;-80
2022/01/17 08:53:33;;;;;;;;;;;7.70;99.90;;;;;;5107221;27;20009;-81
2022/01/17 08:55:59;;;;;;;;;;;7.90;99.90;;;;;;5098526;27;20484;-80
2022/01/17 08:58:24;;;;;;;;;;;7.80;99.90;;;;;;5114498;27;19940;-82
2022/01/17 09:00:50;;;;;;;;;;;7.80;99.90;;;;;;5114652;27;19927;-82
2022/01/17 09:03:19;;;;;;;;;;;7.80;99.90;;;;;;5075048;27;19919;-84
2022/01/17 09:05:45;;;;;;;;;;;7.90;99.90;;;;;;5111094;27;19915;-79
2022/01/17 09:08:11;;;;;;;;;;;7.90;99.90;;;;;;5114125;27;20277;-81
2022/01/17 09:10:38;;;;;;;;;;;7.90;99.90;;;;;;5089126;27;19923;-81
2022/01/17 09:13:07;;;;;;;;;;;7.90;99.90;;;;;;5130253;27;19915;-82
2022/01/17 09:15:32;;;;;;;;;;;8.00;99.90;;;;;;5078444;27;19921;-81
2022/01/17 09:17:58;;;;;;;;;;;8.10;99.90;;;;;;5087800;27;19923;-81
2022/01/17 09:20:24;;;;;;;;;;;8.20;99.90;;;;;;5097665;27;19915;-80
2022/01/17 09:22:50;;;;;;;;;;;8.30;99.90;;;;;;5094000;27;20369;-81
2022/01/17 09:25:15;;;;;;;;;;;8.30;99.90;;;;;;5095287;27;20022;-76
2022/01/17 09:27:42;;;;;;;;;;;8.30;99.90;;;;;;5084442;27;19916;-80
2022/01/17 09:30:09;;;;;;;;;;;8.30;99.90;;;;;;5112019;27;19988;-78
2022/01/17 09:32:36;;;;;;;;;;;8.30;99.90;;;;;;5131034;27;19958;-77
2022/01/17 09:35:02;;;;;;;;;;;8.20;99.90;;;;;;5107245;27;20430;-78
2022/01/17 09:37:28;;;;;;;;;;;8.30;99.90;;;;;;5125513;27;20001;-82
2022/01/17 09:39:53;;;;;;;;;;;8.40;99.90;;;;;;5086193;28;20018;-81
2022/01/17 09:42:19;;;;;;;;;;;8.30;99.90;;;;;;5099033;28;19959;-78
2022/01/17 09:44:45;;;;;;;;;;;8.40;99.90;;;;;;5098172;27;19969;-80
2022/01/17 09:47:12;;;;;;;;;;;8.40;99.90;;;;;;5131551;27;19907;-78
2022/01/17 09:49:48;;;;;;;;;;;8.50;99.90;;;;;;5124411;27;19972;-81
2022/01/17 09:54:59;;;;;;;;;;;8.60;99.90;;;;;;5091523;27;19923;-77
2022/01/17 09:57:27;;;;;;;;;;;8.60;99.90;;;;;;5132593;27;20268;-81
2022/01/17 09:59:52;;;;;;;;;;;8.60;99.90;;;;;;5097638;27;19952;-80
2022/01/17 10:02:18;;;;;;;;;;;8.60;99.90;;;;;;5109095;27;19919;-81
2022/01/17 10:04:43;;;;;;;;;;;8.60;99.90;;;;;;5110831;27;20585;-79
2022/01/17 10:07:09;;;;;;;;;;;8.70;99.90;;;;;;5091823;28;19916;-80
2022/01/17 10:09:35;;;;;;;;;;;8.70;99.90;;;;;;5111770;27;19967;-79
2022/01/17 10:12:03;;;;;;;;;;;8.70;99.90;;;;;;5078064;27;19948;-76
2022/01/17 10:14:31;;;;;;;;;;;8.60;99.90;;;;;;5092129;27;19923;-80
2022/01/17 10:16:57;;;;;;;;;;;8.60;99.90;;;;;;5114115;27;19923;-82
2022/01/17 10:19:25;;;;;;;;;;;7.00;99.90;;;;;;5098709;28;19923;-83
2022/01/17 10:21:54;;;;;;;;;;;8.50;99.90;;;;;;5096071;27;19922;-82
2022/01/17 10:24:38;;;;;;;;;;;8.50;99.90;;;;;;5097330;28;19920;-77
2022/01/17 10:27:22;;;;;;;;;;;8.60;99.90;;;;;;5115637;28;20247;-79
2022/01/17 10:35:20;;;;;;;;;;;10.00;99.90;;;;;;5097947;28;19920;-80
2022/01/17 10:37:55;;;;;;;;;;;8.80;99.90;;;;;;5089600;28;20303;-80
2022/01/17 10:40:21;;;;;;;;;;;8.80;99.90;;;;;;5111053;28;19916;-78
2022/01/17 10:42:48;;;;;;;;;;;9.50;99.90;;;;;;5090298;28;20022;-81
2022/01/17 10:45:19;;;;;;;;;;;8.80;99.90;;;;;;5107976;28;19958;-80
2022/01/17 10:47:45;;;;;;;;;;;8.70;99.90;;;;;;5106939;28;19920;-80
2022/01/17 10:50:19;;;;;;;;;;;8.80;99.90;;;;;;5095101;28;19945;-82
2022/01/17 10:52:52;;;;;;;;;;;8.80;99.90;;;;;;5112339;28;19961;-78
2022/01/17 10:55:17;;;;;;;;;;;8.80;99.90;;;;;;5100660;28;19962;-76
2022/01/17 10:57:45;;;;;;;;;;;8.70;99.90;;;;;;5108425;28;19958;-77
2022/01/17 11:00:15;;;;;;;;;;;8.80;99.90;;;;;;5106765;28;20033;-77
2022/01/17 11:02:43;;;;;;;;;;;8.80;99.90;;;;;;5107512;28;19930;-76
2022/01/17 11:05:13;;;;;;;;;;;8.90;99.90;;;;;;5102616;28;19919;-78
2022/01/17 11:07:40;;;;;;;;;;;9.00;99.90;;;;;;5090575;28;19943;-75
2022/01/17 11:10:11;;;;;;;;;;;9.00;99.90;;;;;;5090877;28;19966;-75
2022/01/17 11:12:38;;;;;;;;;;;9.00;99.90;;;;;;5110226;28;19920;-78
2022/01/17 11:15:04;;;;;;;;;;;9.10;99.90;;;;;;5081213;28;19924;-77
2022/01/17 11:17:35;;;;;;;;;;;9.10;99.90;;;;;;5095527;28;19954;-77
2022/01/17 11:20:07;;;;;;;;;;;9.10;99.90;;;;;;5104652;28;19968;-73
2022/01/17 11:22:34;;;;;;;;;;;9.10;99.90;;;;;;5080282;28;19919;-76
2022/01/17 11:25:00;;;;;;;;;;;9.00;99.90;;;;;;5101169;28;19964;-78
2022/01/17 11:27:26;;;;;;;;;;;9.10;99.90;;;;;;5111802;28;21036;-76
2022/01/17 11:29:52;;;;;;;;;;;9.20;99.90;;;;;;5087099;28;19923;-78
2022/01/17 11:32:18;;;;;;;;;;;9.10;99.90;;;;;;5105744;28;19930;-78
2022/01/17 11:34:43;;;;;;;;;;;9.10;99.90;;;;;;5107774;28;19935;-77
2022/01/17 11:37:10;;;;;;;;;;;9.10;99.90;;;;;;5077730;28;19916;-76
2022/01/17 11:39:47;;;;;;;;;;;9.20;99.90;;;;;;5096102;28;19926;-78
2022/01/17 11:42:29;;;;;;;;;;;9.20;99.90;;;;;;5095980;28;19950;-79
2022/01/17 11:44:54;;;;;;;;;;;9.10;99.90;;;;;;5092960;28;19966;-78
2022/01/17 11:47:39;;;;;;;;;;;9.10;99.90;;;;;;5100641;28;19958;-80
2022/01/17 11:50:23;;;;;;;;;;;9.10;99.90;;;;;;5097724;27;20027;-79
2022/01/17 11:52:49;;;;;;;;;;;9.10;99.90;;;;;;5109961;27;19926;-78
2022/01/17 11:55:34;;;;;;;;;;;9.10;99.90;;;;;;5111141;27;19923;-81
2022/01/17 11:58:15;;;;;;;;;;;9.10;99.90;;;;;;5110407;27;19941;-80
2022/01/17 12:00:41;;;;;;;;;;;9.20;99.90;;;;;;5115238;27;19923;-79
2022/01/17 12:03:18;;;;;;;;;;;8.70;99.90;;;;;;5080641;27;19923;-81
2022/01/17 12:05:44;;;;;;;;;;;9.20;99.90;;;;;;5107958;27;20014;-80
2022/01/17 12:08:11;;;;;;;;;;;9.20;99.90;;;;;;5097323;27;20011;-80
2022/01/17 12:10:39;;;;;;;;;;;9.20;99.90;;;;;;5114159;27;19940;-81
2022/01/17 12:13:15;;;;;;;;;;;9.20;99.90;;;;;;5113998;27;19987;-79
2022/01/17 12:16:06;;;;;;;;;;;9.20;99.90;;;;;;5116116;27;19927;-82
2022/01/17 12:18:35;;;;;;;;;;;9.10;99.90;;;;;;5103026;27;19924;-78
2022/01/17 12:21:20;;;;;;;;;;;9.10;99.90;;;;;;5096584;27;20336;-84
2022/01/17 12:23:46;;;;;;;;;;;9.00;99.90;;;;;;5092846;27;19926;-78
2022/01/17 12:26:28;;;;;;;;;;;9.10;99.90;;;;;;5079856;27;19915;-78
2022/01/17 12:28:55;;;;;;;;;;;9.10;99.90;;;;;;5097773;27;19964;-82
2022/01/17 12:31:57;;;;;;;;;;;9.10;99.90;;;;;;5096294;27;19968;-77
2022/01/17 12:34:25;;;;;;;;;;;9.10;99.90;;;;;;5042675;28;19920;-76
2022/01/17 12:36:52;;;;;;;;;;;9.10;99.90;;;;;;5088537;27;19923;-78
2022/01/17 12:39:25;;;;;;;;;;;9.10;99.90;;;;;;5112933;27;19923;-76
2022/01/17 12:41:55;;;;;;;;;;;9.00;99.90;;;;;;5096072;27;19971;-76
2022/01/17 12:44:25;;;;;;;;;;;9.00;99.90;;;;;;5090918;27;19923;-76
2022/01/17 12:46:51;;;;;;;;;;;9.10;99.90;;;;;;5094369;27;19926;-77
2022/01/17 12:49:17;;;;;;;;;;;9.10;99.90;;;;;;5113557;27;20360;-78
2022/01/17 12:51:44;;;;;;;;;;;9.00;99.90;;;;;;5081142;28;19923;-80
2022/01/17 12:54:11;;;;;;;;;;;9.00;99.90;;;;;;5097033;28;19968;-78
2022/01/17 12:56:39;;;;;;;;;;;9.00;99.90;;;;;;5136408;27;20093;-75
2022/01/17 12:59:05;;;;;;;;;;;8.90;99.90;;;;;;5131047;27;19919;-75
2022/01/17 13:01:33;;;;;;;;;;;8.90;99.90;;;;;;5112981;27;19940;-81
2022/01/17 13:04:04;;;;;;;;;;;10.10;99.90;;;;;;5114793;27;19944;-79
2022/01/17 13:06:30;;;;;;;;;;;9.00;99.90;;;;;;5109771;27;19920;-81
2022/01/17 13:08:59;;;;;;;;;;;9.10;99.90;;;;;;5097251;27;19998;-82
2022/01/17 13:11:25;;;;;;;;;;;9.20;99.90;;;;;;5092909;27;19966;-85
2022/01/17 13:13:58;;;;;;;;;;;9.50;99.90;;;;;;5110418;27;20006;-79
2022/01/17 13:16:24;;;;;;;;;;;9.20;99.90;;;;;;5109544;27;19922;-78
2022/01/17 13:18:52;;;;;;;;;;;9.20;99.90;;;;;;5130177;27;19928;-79
2022/01/17 13:21:17;;;;;;;;;;;9.20;99.90;;;;;;5114457;27;20276;-79
2022/01/17 13:23:49;;;;;;;;;;;9.20;99.90;;;;;;5112820;27;19919;-81
2022/01/17 13:26:16;;;;;;;;;;;7.30;99.90;;;;;;5093622;27;19915;-80
2022/01/17 13:28:54;;;;;;;;;;;9.20;99.90;;;;;;5093186;27;19916;-78
2022/01/17 13:31:24;;;;;;;;;;;9.10;99.90;;;;;;5091770;27;20388;-79
2022/01/17 13:33:50;;;;;;;;;;;9.20;99.90;;;;;;5095931;27;19923;-79
2022/01/17 13:36:26;;;;;;;;;;;9.00;99.90;;;;;;5090276;27;19969;-78
2022/01/17 13:39:05;;;;;;;;;;;8.90;99.90;;;;;;5081376;27;20398;-78
2022/01/17 13:41:31;;;;;;;;;;;8.80;99.90;;;;;;5105679;27;19970;-79
2022/01/17 13:43:57;;;;;;;;;;;8.70;99.90;;;;;;5075361;28;19924;-80
2022/01/17 13:46:23;;;;;;;;;;;8.70;99.90;;;;;;5108344;27;20564;-76
2022/01/17 13:48:49;;;;;;;;;;;8.80;99.90;;;;;;5110361;27;19920;-81
2022/01/17 13:51:16;;;;;;;;;;;8.80;99.90;;;;;;5112517;27;19947;-79
2022/01/17 13:53:42;;;;;;;;;;;8.90;99.90;;;;;;5109314;27;20100;-77
2022/01/17 13:56:08;;;;;;;;;;;8.80;99.90;;;;;;5098777;27;20015;-78
2022/01/17 13:58:35;;;;;;;;;;;9.30;99.90;;;;;;5076162;28;19923;-78
2022/01/17 14:01:07;;;;;;;;;;;8.70;99.90;;;;;;5105080;27;19923;-79
2022/01/17 14:03:34;;;;;;;;;;;8.70;99.90;;;;;;5108269;27;19919;-77
2022/01/17 14:06:10;;;;;;;;;;;8.80;99.90;;;;;;5108234;28;20409;-79
2022/01/17 14:08:39;;;;;;;;;;;8.90;99.90;;;;;;5085881;28;19965;-76
2022/01/17 14:11:06;;;;;;;;;;;8.80;99.90;;;;;;5090886;27;19916;-78
2022/01/17 14:13:55;;;;;;;;;;;8.90;99.90;;;;;;5103382;27;20295;-77
2022/01/17 14:16:25;;;;;;;;;;;8.80;99.90;;;;;;5093682;27;19923;-79
2022/01/17 14:18:52;;;;;;;;;;;8.80;99.90;;;;;;5089775;28;20387;-79
2022/01/17 14:21:28;;;;;;;;;;;8.80;99.90;;;;;;5092354;28;19919;-78
2022/01/17 14:24:12;;;;;;;;;;;8.80;99.90;;;;;;5118486;28;19919;-80
2022/01/17 14:26:39;;;;;;;;;;;8.70;99.90;;;;;;5091056;28;19919;-80
2022/01/17 14:29:09;;;;;;;;;;;8.70;99.90;;;;;;5111480;28;19925;-79
2022/01/17 14:31:35;;;;;;;;;;;8.70;99.90;;;;;;5083724;28;20579;-80
2022/01/17 14:34:08;;;;;;;;;;;8.60;99.90;;;;;;5105616;28;20687;-80
2022/01/17 14:36:34;;;;;;;;;;;8.70;99.90;;;;;;5086763;28;19969;-79
2022/01/17 14:39:01;;;;;;;;;;;8.70;99.90;;;;;;5109181;28;20015;-80
2022/01/17 14:41:34;;;;;;;;;;;8.80;99.90;;;;;;5086359;28;19919;-78
2022/01/17 14:44:14;;;;;;;;;;;8.90;99.90;;;;;;5102260;28;19962;-80
2022/01/17 14:46:44;;;;;;;;;;;8.90;99.90;;;;;;5089628;28;19926;-79
2022/01/17 14:49:14;;;;;;;;;;;7.10;99.90;;;;;;5097779;28;19959;-76
2022/01/17 14:51:44;;;;;;;;;;;8.60;99.90;;;;;;5106481;28;19935;-77
2022/01/17 14:54:14;;;;;;;;;;;8.40;99.90;;;;;;5083969;28;20381;-78
2022/01/17 14:59:41;;;;;;;;;;;8.30;99.90;;;;;;5099436;28;19927;-81
2022/01/17 15:02:17;;;;;;;;;;;8.10;99.90;;;;;;5088114;28;20365;-80